Time;durP1;ratioP1;P1;durP2;ratioP2;P2;SDS_P1;SDS_P2;PMS_P1;PMS_P2;Temp;Humidity;BMP_temperature;BMP_pressure;BME280_temperature;BME280_humidity;BME280_pressure;Samples;Min_cycle;Max_cycle;Signal;HPM_P1;HPM_P2
2023/04/06 00:00:55;;;;;;;9.27;6.57;;;2.10;99.90;;;;;;4326143;28;10000148;-73
2023/04/06 00:03:20;;;;;;;9.95;7.00;;;2.20;99.90;;;;;;5010718;28;20034;-72
2023/04/06 00:05:47;;;;;;;9.93;7.43;;;2.10;99.90;;;;;;5032192;28;20056;-73
2023/04/06 00:08:13;;;;;;;8.75;6.82;;;2.10;99.90;;;;;;5015590;28;20026;-73
2023/04/06 00:10:39;;;;;;;10.90;7.28;;;2.00;99.90;;;;;;5012448;28;20545;-73
2023/04/06 00:13:06;;;;;;;10.50;7.50;;;2.00;99.90;;;;;;5013008;28;20018;-73
2023/04/06 00:15:31;;;;;;;9.90;6.85;;;1.90;99.90;;;;;;5011909;28;20026;-73
2023/04/06 00:17:57;;;;;;;10.60;7.47;;;1.90;99.90;;;;;;5020334;28;20025;-73
2023/04/06 00:20:22;;;;;;;9.38;6.95;;;1.90;99.90;;;;;;5016011;28;20412;-73
2023/04/06 00:22:48;;;;;;;10.27;7.30;;;1.90;99.90;;;;;;5026352;28;20025;-73
2023/04/06 00:25:15;;;;;;;8.98;7.20;;;1.80;99.90;;;;;;5017680;28;20461;-73
2023/04/06 00:27:40;;;;;;;12.90;8.15;;;1.80;99.90;;;;;;5022302;28;20038;-73
2023/04/06 00:30:07;;;;;;;9.95;7.25;;;1.80;99.90;;;;;;5025069;28;20021;-72
2023/04/06 00:32:34;;;;;;;12.25;7.30;;;1.80;99.90;;;;;;5018264;28;20056;-73
2023/04/06 00:35:01;;;;;;;8.25;6.65;;;1.80;99.90;;;;;;5020065;28;20723;-72
2023/04/06 00:37:27;;;;;;;12.63;8.05;;;1.80;99.90;;;;;;5023381;28;20411;-72
2023/04/06 00:39:52;;;;;;;11.70;8.32;;;1.80;99.90;;;;;;5017054;28;20033;-73
2023/04/06 00:42:25;;;;;;;10.85;7.28;;;1.80;99.90;;;;;;5024215;28;20057;-72
2023/04/06 00:44:58;;;;;;;7.35;5.55;;;1.80;99.90;;;;;;5014864;28;20064;-72
2023/04/06 00:47:26;;;;;;;10.43;7.18;;;1.70;99.90;;;;;;5019684;28;20592;-72
2023/04/06 00:49:54;;;;;;;10.00;7.88;;;1.70;99.90;;;;;;5019616;28;20033;-73
2023/04/06 00:52:19;;;;;;;11.18;7.93;;;1.80;99.90;;;;;;5022818;28;20026;-72
2023/04/06 00:54:45;;;;;;;11.27;7.70;;;1.90;99.90;;;;;;5028959;28;20049;-73
2023/04/06 00:57:14;;;;;;;12.43;8.00;;;1.90;99.90;;;;;;5026038;28;20059;-73
2023/04/06 00:59:40;;;;;;;13.50;8.30;;;2.00;99.90;;;;;;5025080;28;20045;-73
2023/04/06 01:02:06;;;;;;;11.13;8.05;;;2.10;99.90;;;;;;5021175;28;20034;-73
2023/04/06 01:04:32;;;;;;;12.38;8.73;;;2.00;99.90;;;;;;5016791;28;20034;-73
2023/04/06 01:06:58;;;;;;;12.57;8.60;;;2.10;99.90;;;;;;5012943;28;20053;-73
2023/04/06 01:09:24;;;;;;;12.18;8.43;;;2.20;99.90;;;;;;5025259;28;20045;-73
2023/04/06 01:11:49;;;;;;;13.75;8.45;;;2.20;99.90;;;;;;5017149;28;20026;-73
2023/04/06 01:14:15;;;;;;;12.98;8.00;;;2.20;99.90;;;;;;5025335;28;20654;-73
2023/04/06 01:16:41;;;;;;;11.25;7.97;;;2.10;99.90;;;;;;5020606;28;20029;-72
2023/04/06 01:19:09;;;;;;;10.73;8.50;;;2.00;99.90;;;;;;5026401;28;20112;-73
2023/04/06 01:21:36;;;;;;;10.18;7.57;;;1.90;99.90;;;;;;5019426;28;20114;-73
2023/04/06 01:24:01;;;;;;;10.07;7.45;;;1.80;99.90;;;;;;5017839;28;20063;-73
2023/04/06 01:26:29;;;;;;;11.85;7.97;;;1.70;99.90;;;;;;5024049;28;20123;-73
2023/04/06 01:28:55;;;;;;;8.07;7.03;;;1.50;99.90;;;;;;5016575;28;20112;-73
2023/04/06 01:31:20;;;;;;;10.20;7.55;;;1.40;99.90;;;;;;5017396;28;20112;-73
2023/04/06 01:33:46;;;;;;;9.82;7.45;;;1.40;99.90;;;;;;5018350;28;20025;-73
2023/04/06 01:36:12;;;;;;;9.93;7.63;;;1.30;99.90;;;;;;5017108;28;20041;-73
2023/04/06 01:38:38;;;;;;;8.50;6.50;;;1.30;99.90;;;;;;5027574;28;20096;-73
2023/04/06 01:41:04;;;;;;;10.63;8.00;;;;;;;;;;5014079;28;20117;-73
2023/04/06 01:43:30;;;;;;;10.30;7.43;;;;;;;;;;5018214;28;20037;-73
2023/04/06 01:45:56;;;;;;;9.82;7.10;;;;;;;;;;5028145;28;20033;-73
2023/04/06 01:48:22;;;;;;;10.23;7.22;;;;;;;;;;5021098;28;20029;-73
2023/04/06 01:50:48;;;;;;;9.90;7.25;;;;;;;;;;5022778;28;20026;-73
2023/04/06 01:53:15;;;;;;;10.77;8.57;;;;;;;;;;5022382;28;20025;-73
2023/04/06 01:55:41;;;;;;;13.13;9.45;;;;;;;;;;5026277;28;20494;-73
2023/04/06 01:58:07;;;;;;;15.80;9.30;;;;;;;;;;5017732;28;20033;-73
2023/04/06 02:00:33;;;;;;;10.50;8.05;;;;;;;;;;5024014;28;20033;-72
2023/04/06 02:02:59;;;;;;;12.20;8.07;;;;;;;;;;5020465;28;20474;-73
2023/04/06 02:05:26;;;;;;;11.55;8.93;;;;;;;;;;5020224;28;20029;-73
2023/04/06 02:07:52;;;;;;;13.93;9.57;;;;;;;;;;5017446;28;20061;-73
2023/04/06 02:10:18;;;;;;;13.27;9.95;;;;;;;;;;5016439;28;20034;-72
2023/04/06 02:12:44;;;;;;;13.25;10.02;;;;;;;;;;5010627;28;20175;-73
2023/04/06 02:15:10;;;;;;;17.42;10.85;;;;;;;;;;5014915;28;20702;-73
2023/04/06 02:17:36;;;;;;;15.48;10.35;;;;;;;;;;5021586;28;20040;-73
2023/04/06 02:20:02;;;;;;;13.57;10.35;;;;;;;;;;5018400;28;20518;-73
2023/04/06 02:22:28;;;;;;;17.58;10.77;;;;;;;;;;5016310;28;20034;-73
2023/04/06 02:24:54;;;;;;;19.90;11.15;;;;;;;;;;5009835;28;20053;-73
2023/04/06 02:27:20;;;;;;;15.13;11.02;;;;;;;;;;5014204;28;20402;-73
2023/04/06 02:29:46;;;;;;;16.77;11.73;;;;;;;;;;5016408;28;20036;-73
2023/04/06 02:32:12;;;;;;;14.55;10.20;;;;;;;;;;5026630;28;20444;-73
2023/04/06 02:34:38;;;;;;;14.98;11.18;;;;;;;;;;5011471;28;20026;-74
2023/04/06 02:37:04;;;;;;;14.65;10.57;;;;;;;;;;5008919;28;20081;-73
2023/04/06 02:39:30;;;;;;;14.85;10.07;;;;;;;;;;5010510;28;20060;-73
2023/04/06 02:41:57;;;;;;;16.27;10.90;;;;;;;;;;5024726;28;20138;-73
2023/04/06 02:44:22;;;;;;;14.70;10.23;;;;;;;;;;5029693;28;20103;-73
2023/04/06 02:46:49;;;;;;;15.85;10.27;;;;;;;;;;5013234;28;20478;-73
2023/04/06 02:49:15;;;;;;;13.75;9.23;;;;;;;;;;5014980;28;20084;-74
2023/04/06 02:51:41;;;;;;;14.63;9.40;;;;;;;;;;5010523;28;20022;-74
2023/04/06 02:54:07;;;;;;;11.57;9.25;;;;;;;;;;5017189;28;20119;-74
2023/04/06 02:56:32;;;;;;;9.80;8.05;;;;;;;;;;5026115;28;20034;-73
2023/04/06 02:58:59;;;;;;;12.13;8.88;;;;;;;;;;5015799;28;20099;-73
2023/04/06 03:01:25;;;;;;;12.35;8.90;;;;;;;;;;5021529;28;20091;-73
2023/04/06 03:03:51;;;;;;;11.45;8.65;;;;;;;;;;5022660;28;20034;-73
2023/04/06 03:06:17;;;;;;;12.40;8.52;;;;;;;;;;5010704;28;20546;-73
2023/04/06 03:08:43;;;;;;;10.85;8.63;;;;;;;;;;5028661;28;20024;-73
2023/04/06 03:11:09;;;;;;;12.70;9.15;;;;;;;;;;5029211;28;20030;-73
2023/04/06 03:13:35;;;;;;;11.95;8.70;;;;;;;;;;5021433;28;20021;-73
2023/04/06 03:16:01;;;;;;;12.95;8.35;;;;;;;;;;5024166;28;20094;-73
2023/04/06 03:18:27;;;;;;;11.63;9.20;;;;;;;;;;5007488;28;20110;-73
2023/04/06 03:20:53;;;;;;;13.82;9.10;;;;;;;;;;5010330;28;20481;-73
2023/04/06 03:23:22;;;;;;;11.57;8.50;;;;;;;;;;5017417;28;20048;-73
2023/04/06 03:25:48;;;;;;;12.88;9.00;;;;;;;;;;5019141;28;20168;-73
2023/04/06 03:28:15;;;;;;;16.13;10.30;;;;;;;;;;5010784;28;20073;-73
2023/04/06 03:30:41;;;;;;;13.90;10.02;;;;;;;;;;5011850;28;20045;-73
2023/04/06 03:33:08;;;;;;;15.18;10.10;;;;;;;;;;5014627;28;20029;-73
2023/04/06 03:35:34;;;;;;;12.52;9.40;;;;;;;;;;5017869;28;20359;-73
2023/04/06 03:38:00;;;;;;;12.55;9.15;;;;;;;;;;5019693;28;20117;-73
2023/04/06 03:40:26;;;;;;;12.25;9.48;;;;;;;;;;5019139;28;20045;-73
2023/04/06 03:42:52;;;;;;;15.68;10.02;;;;;;;;;;5009860;28;20068;-73
2023/04/06 03:45:18;;;;;;;14.10;10.10;;;;;;;;;;5007412;28;20034;-73
2023/04/06 03:47:44;;;;;;;13.75;9.73;;;;;;;;;;5009539;28;20497;-73
2023/04/06 03:50:10;;;;;;;13.60;10.18;;;;;;;;;;5027291;28;20083;-73
2023/04/06 03:52:36;;;;;;;13.85;10.32;;;;;;;;;;5009677;28;20474;-74
2023/04/06 03:55:02;;;;;;;13.63;10.02;;;;;;;;;;5016484;28;20109;-73
2023/04/06 03:57:28;;;;;;;16.35;10.98;;;;;;;;;;5020900;28;20030;-73
2023/04/06 03:59:54;;;;;;;15.02;10.68;;;;;;;;;;5008801;28;20376;-73
2023/04/06 04:02:20;;;;;;;13.85;10.30;;;;;;;;;;5010345;28;20042;-73
2023/04/06 04:04:46;;;;;;;15.95;10.88;;;;;;;;;;5014674;28;20044;-73
2023/04/06 04:07:12;;;;;;;13.82;9.30;;;;;;;;;;5011720;28;20112;-73
2023/04/06 04:09:38;;;;;;;15.48;10.45;;;;;;;;;;5012405;28;20064;-73
2023/04/06 04:12:04;;;;;;;15.55;10.55;;;;;;;;;;5021440;28;20021;-73
2023/04/06 04:14:30;;;;;;;15.30;9.82;;;;;;;;;;5030194;28;20033;-72
2023/04/06 04:16:56;;;;;;;15.68;10.40;;;;;;;;;;5012332;28;20482;-73
2023/04/06 04:19:22;;;;;;;14.25;10.60;;;;;;;;;;5012175;28;20038;-73
2023/04/06 04:21:48;;;;;;;15.60;10.63;;;;;;;;;;5013167;28;20029;-73
2023/04/06 04:24:14;;;;;;;16.98;10.10;;;;;;;;;;5012342;28;20050;-73
2023/04/06 04:26:40;;;;;;;17.60;12.77;;;;;;;;;;5017394;28;20132;-73
2023/04/06 04:29:06;;;;;;;15.15;11.38;;;;;;;;;;5030124;28;20680;-73
2023/04/06 04:31:32;;;;;;;16.63;11.60;;;;;;;;;;5029629;28;20033;-73
2023/04/06 04:34:00;;;;;;;20.67;13.18;;;;;;;;;;5010544;28;20022;-73
2023/04/06 04:36:26;;;;;;;18.80;13.10;;;;;;;;;;5010260;28;20029;-73
2023/04/06 04:38:52;;;;;;;18.65;13.35;;;;;;;;;;5012702;28;20040;-73
2023/04/06 04:41:18;;;;;;;25.88;13.18;;;;;;;;;;5014821;28;20025;-73
2023/04/06 04:43:45;;;;;;;19.08;13.25;;;;;;;;;;5019098;28;20038;-73
2023/04/06 04:46:11;;;;;;;17.90;12.68;;;;;;;;;;5020924;28;20111;-73
2023/04/06 04:48:37;;;;;;;16.90;12.32;;;;;;;;;;5018509;28;20450;-73
2023/04/06 04:51:04;;;;;;;16.05;11.55;;;;;;;;;;5017288;28;20060;-73
2023/04/06 04:53:30;;;;;;;19.60;12.68;;;;;;;;;;5016796;28;20117;-73
2023/04/06 04:55:56;;;;;;;16.95;12.18;;;;;;;;;;5006213;28;20124;-73
2023/04/06 04:58:22;;;;;;;17.42;12.18;;;;;;;;;;5009686;28;20080;-73
2023/04/06 05:00:48;;;;;;;15.90;10.90;;;;;;;;;;5019837;28;20124;-73
2023/04/06 05:03:18;;;;;;;13.98;10.18;;;;;;;;;;5005741;28;20490;-73
2023/04/06 05:05:44;;;;;;;15.15;10.88;;;;;;;;;;5009188;28;20030;-73
2023/04/06 05:08:10;;;;;;;15.23;10.95;;;;;;;;;;5022748;28;20033;-73
2023/04/06 05:10:36;;;;;;;15.48;11.05;;;;;;;;;;4999358;28;20129;-73
2023/04/06 05:13:02;;;;;;;16.58;11.68;;;;;;;;;;4997191;28;20426;-73
2023/04/06 05:15:28;;;;;;;15.88;11.50;;;;;;;;;;4997585;28;20037;-73
2023/04/06 05:17:54;;;;;;;18.42;11.70;;;;;;;;;;4993662;28;20583;-73
2023/04/06 05:20:20;;;;;;;16.77;11.10;;;;;;;;;;5002816;28;20501;-73
2023/04/06 05:22:46;;;;;;;15.93;11.57;;;;;;;;;;5016032;28;20064;-73
2023/04/06 05:25:13;;;;;;;15.93;11.52;;;;;;;;;;5009140;28;20046;-73
2023/04/06 05:27:39;;;;;;;16.38;11.23;;;;;;;;;;5012501;28;20543;-73
2023/04/06 05:30:06;;;;;;;17.05;12.25;;;;;;;;;;5016632;28;20037;-73
2023/04/06 05:32:32;;;;;;;20.13;12.52;;;;;;;;;;5011724;28;20116;-72
2023/04/06 05:34:58;;;;;;;15.10;10.68;;;;;;;;;;5015516;28;20033;-73
2023/04/06 05:37:24;;;;;;;14.40;10.77;;;;;;;;;;5012384;28;20030;-73
2023/04/06 05:39:50;;;;;;;16.13;11.48;;;;;;;;;;5018742;28;20182;-72
2023/04/06 05:42:16;;;;;;;15.57;11.10;;;;;;;;;;5016429;28;20038;-73
2023/04/06 05:44:42;;;;;;;17.70;12.23;;;;;;;;;;5016640;28;21067;-73
2023/04/06 05:47:08;;;;;;;18.58;12.93;;;;;;;;;;5021305;28;20088;-72
2023/04/06 05:49:35;;;;;;;18.42;13.02;;;;;;;;;;5019522;28;20383;-73
2023/04/06 05:52:01;;;;;;;23.08;14.25;;;;;;;;;;5011567;28;20505;-73
2023/04/06 05:54:27;;;;;;;28.48;17.10;;;;;;;;;;5004312;28;20037;-73
2023/04/06 05:56:53;;;;;;;30.48;20.30;;;;;;;;;;5018597;28;20123;-73
2023/04/06 05:59:20;;;;;;;31.75;19.23;;;;;;;;;;5012750;28;20076;-73
2023/04/06 06:01:46;;;;;;;20.52;14.95;;;;;;;;;;5010147;28;20048;-73
2023/04/06 06:04:12;;;;;;;22.60;14.95;;;;;;;;;;5017533;28;20548;-73
2023/04/06 06:06:38;;;;;;;21.80;15.32;;;;;;;;;;5009394;28;20116;-73
2023/04/06 06:09:04;;;;;;;24.27;14.68;;;;;;;;;;5011579;28;20465;-73
2023/04/06 06:11:31;;;;;;;20.00;14.60;;;;;;;;;;5009646;28;20394;-73
2023/04/06 06:13:56;;;;;;;22.27;15.18;;;0.20;99.90;;;;;;5016091;28;20223;-72
2023/04/06 06:16:22;;;;;;;22.75;15.60;;;0.20;99.90;;;;;;5014113;28;20425;-72
2023/04/06 06:18:48;;;;;;;20.95;13.30;;;0.30;99.90;;;;;;5022864;28;20505;-72
2023/04/06 06:21:14;;;;;;;20.88;13.90;;;0.30;99.90;;;;;;5017350;28;20402;-71
2023/04/06 06:23:42;;;;;;;25.67;14.63;;;0.30;99.90;;;;;;5008503;28;20034;-72
2023/04/06 06:26:07;;;;;;;21.95;14.50;;;0.40;99.90;;;;;;5023039;28;20128;-72
2023/04/06 06:28:33;;;;;;;20.20;13.93;;;0.50;99.90;;;;;;5021705;28;20199;-72
2023/04/06 06:30:58;;;;;;;17.85;12.52;;;0.60;99.90;;;;;;5014310;28;20037;-72
2023/04/06 06:33:25;;;;;;;18.67;13.38;;;0.60;99.90;;;;;;5013503;28;20486;-72
2023/04/06 06:35:51;;;;;;;18.17;12.73;;;0.70;99.90;;;;;;5015868;28;20058;-72
2023/04/06 06:38:17;;;;;;;21.15;13.30;;;0.70;99.90;;;;;;5009423;28;20092;-72
2023/04/06 06:40:43;;;;;;;23.20;13.70;;;0.70;99.90;;;;;;5017723;28;20042;-72
2023/04/06 06:43:08;;;;;;;22.30;14.32;;;0.70;99.90;;;;;;5017889;28;20044;-72
2023/04/06 06:45:34;;;;;;;22.23;15.65;;;0.80;99.90;;;;;;5009014;28;20021;-71
2023/04/06 06:48:00;;;;;;;23.08;16.20;;;0.90;99.90;;;;;;5023317;28;20433;-72
2023/04/06 06:50:25;;;;;;;23.30;16.48;;;0.90;99.90;;;;;;5008944;28;20143;-71
2023/04/06 06:52:51;;;;;;;23.40;14.27;;;1.10;99.90;;;;;;5010036;28;20713;-72
2023/04/06 06:55:18;;;;;;;19.50;14.10;;;1.20;99.90;;;;;;5015017;28;20030;-71
2023/04/06 06:57:46;;;;;;;21.00;13.57;;;1.30;99.90;;;;;;5025388;28;20043;-72
2023/04/06 07:00:13;;;;;;;17.92;12.95;;;1.40;99.90;;;;;;5016150;28;20045;-71
2023/04/06 07:02:38;;;;;;;19.02;13.20;;;1.60;99.90;;;;;;5012137;28;20042;-71
2023/04/06 07:05:05;;;;;;;21.65;13.68;;;1.70;99.90;;;;;;5016230;28;20056;-71
2023/04/06 07:07:32;;;;;;;18.83;13.32;;;1.80;99.90;;;;;;5026192;28;20025;-71
2023/04/06 07:09:58;;;;;;;20.30;13.30;;;2.00;99.90;;;;;;5023914;28;20052;-71
2023/04/06 07:12:24;;;;;;;21.45;13.73;;;2.10;99.90;;;;;;5017375;28;20475;-71
2023/04/06 07:14:49;;;;;;;18.77;13.07;;;2.30;99.90;;;;;;5017124;28;20038;-71
2023/04/06 07:17:15;;;;;;;17.52;13.00;;;2.40;99.90;;;;;;5014719;28;20029;-71
2023/04/06 07:19:41;;;;;;;18.40;13.65;;;2.50;99.90;;;;;;5008307;28;20041;-71
2023/04/06 07:22:07;;;;;;;19.33;13.50;;;;;;;;;;5012288;28;20108;-71
2023/04/06 07:24:32;;;;;;;21.35;13.90;;;2.90;99.90;;;;;;5015192;28;20540;-71
2023/04/06 07:27:00;;;;;;;20.52;12.93;;;2.90;99.90;;;;;;5007047;28;20026;-71
2023/04/06 07:29:27;;;;;;;18.90;13.57;;;3.00;99.90;;;;;;5014443;28;20026;-71
2023/04/06 07:31:53;;;;;;;19.15;13.15;;;3.10;99.90;;;;;;5008963;28;20077;-72
2023/04/06 07:34:19;;;;;;;21.15;13.48;;;3.20;99.90;;;;;;5012240;28;20452;-72
2023/04/06 07:36:44;;;;;;;22.23;13.95;;;3.40;99.90;;;;;;5025006;28;20037;-71
2023/04/06 07:39:10;;;;;;;21.15;14.18;;;3.50;99.90;;;;;;5015789;28;20036;-72
2023/04/06 07:41:36;;;;;;;19.25;13.57;;;3.50;99.90;;;;;;5014403;28;20029;-72
2023/04/06 07:44:01;;;;;;;21.50;14.18;;;3.60;99.90;;;;;;5019199;28;20052;-71
2023/04/06 07:46:27;;;;;;;22.85;14.35;;;3.60;99.90;;;;;;5013969;28;20508;-71
2023/04/06 07:48:53;;;;;;;21.20;13.80;;;3.70;99.90;;;;;;5015030;28;20044;-71
2023/04/06 07:51:18;;;;;;;20.30;13.73;;;3.90;99.90;;;;;;5031268;28;20034;-72
2023/04/06 07:53:44;;;;;;;19.98;13.90;;;4.10;99.90;;;;;;5025589;28;20383;-72
2023/04/06 07:56:10;;;;;;;20.35;13.30;;;4.30;99.90;;;;;;5013716;28;20029;-72
2023/04/06 07:58:36;;;;;;;18.45;13.57;;;4.50;99.90;;;;;;5031950;28;20045;-72
2023/04/06 08:01:02;;;;;;;27.08;14.05;;;4.70;99.90;;;;;;5031831;28;20053;-72
2023/04/06 08:03:27;;;;;;;18.25;13.18;;;4.90;99.90;;;;;;5020814;28;20038;-72
2023/04/06 08:05:53;;;;;;;22.15;13.43;;;5.10;99.90;;;;;;5012448;28;20053;-71
2023/04/06 08:08:21;;;;;;;22.35;12.98;;;5.20;99.90;;;;;;5018086;28;20029;-71
2023/04/06 08:10:47;;;;;;;23.88;13.27;;;5.30;99.90;;;;;;5011864;28;20499;-72
2023/04/06 08:13:12;;;;;;;23.17;14.32;;;5.50;99.90;;;;;;5013357;28;20072;-72
2023/04/06 08:15:38;;;;;;;21.63;13.15;;;5.60;99.90;;;;;;5011560;28;20053;-71
2023/04/06 08:18:04;;;;;;;17.38;12.95;;;5.80;99.90;;;;;;5023030;28;20779;-71
2023/04/06 08:20:30;;;;;;;21.60;12.57;;;5.90;99.90;;;;;;5022847;28;20032;-71
2023/04/06 08:22:55;;;;;;;20.45;12.60;;;6.00;99.90;;;;;;5014620;28;20091;-72
2023/04/06 08:25:21;;;;;;;21.08;12.85;;;6.10;99.90;;;;;;5010829;28;20049;-71
2023/04/06 08:27:46;;;;;;;18.30;12.10;;;6.30;99.90;;;;;;5018411;28;20036;-71
2023/04/06 08:30:12;;;;;;;16.40;12.20;;;6.50;99.90;;;;;;5012447;28;20029;-71
2023/04/06 08:32:38;;;;;;;20.63;12.38;;;6.60;99.90;;;;;;5015961;28;20022;-71
2023/04/06 08:35:03;;;;;;;18.10;12.40;;;6.60;99.90;;;;;;5016228;28;20372;-72
2023/04/06 08:37:29;;;;;;;22.02;12.40;;;6.80;99.90;;;;;;5012128;28;20038;-71
2023/04/06 08:39:55;;;;;;;17.48;12.15;;;6.90;99.90;;;;;;5018350;28;20026;-71
2023/04/06 08:42:21;;;;;;;18.30;12.52;;;;;;;;;;5021883;28;20486;-71
2023/04/06 08:44:53;;;;;;;17.08;11.27;;;7.10;99.90;;;;;;5019701;28;20036;-71
2023/04/06 08:47:19;;;;;;;20.05;12.00;;;7.30;99.90;;;;;;5022130;28;20438;-72
2023/04/06 08:49:46;;;;;;;21.25;12.38;;;7.40;99.90;;;;;;5025520;28;20112;-71
2023/04/06 08:52:12;;;;;;;17.20;12.05;;;7.50;99.90;;;;;;5017301;28;20124;-71
2023/04/06 08:54:38;;;;;;;22.95;13.43;;;7.60;99.90;;;;;;5010116;28;20037;-72
2023/04/06 08:57:05;;;;;;;18.35;12.27;;;7.70;99.90;;;;;;5000770;28;20361;-72
2023/04/06 08:59:34;;;;;;;18.30;11.95;;;7.70;99.90;;;;;;5003127;28;20119;-72
2023/04/06 09:02:02;;;;;;;21.60;11.90;;;7.90;99.90;;;;;;5006261;28;20042;-72
2023/04/06 09:04:28;;;;;;;18.58;11.18;;;8.00;99.90;;;;;;5005123;28;20762;-72
2023/04/06 09:06:54;;;;;;;17.00;10.93;;;8.10;99.90;;;;;;5004567;28;20510;-72
2023/04/06 09:09:20;;;;;;;18.40;11.77;;;8.30;99.90;;;;;;5008772;28;20039;-72
2023/04/06 09:11:48;;;;;;;18.40;11.35;;;8.40;99.90;;;;;;5004955;28;20033;-71
2023/04/06 09:14:15;;;;;;;19.20;11.23;;;8.40;99.90;;;;;;5015554;28;20397;-71
2023/04/06 09:16:43;;;;;;;18.98;10.75;;;8.60;99.90;;;;;;5026874;28;20029;-72
2023/04/06 09:19:09;;;;;;;19.13;11.38;;;8.80;99.90;;;;;;5011683;28;20638;-72
2023/04/06 09:21:36;;;;;;;17.60;10.55;;;8.90;99.90;;;;;;5015184;28;20033;-72
2023/04/06 09:24:03;;;;;;;14.93;10.38;;;9.00;99.90;;;;;;5013036;28;20108;-71
2023/04/06 09:26:29;;;;;;;14.75;10.10;;;9.10;99.90;;;;;;5014947;28;20121;-71
2023/04/06 09:28:57;;;;;;;13.90;9.88;;;9.20;99.90;;;;;;5022094;28;20026;-71
2023/04/06 09:31:25;;;;;;;19.85;10.13;;;9.50;99.90;;;;;;5008389;28;20457;-71
2023/04/06 09:33:54;;;;;;;19.30;10.40;;;9.60;99.90;;;;;;5008214;28;20345;-71
2023/04/06 09:36:28;;;;;;;15.18;9.95;;;9.60;99.90;;;;;;5010948;28;20049;-71
2023/04/06 09:39:04;;;;;;;13.65;10.00;;;9.80;99.90;;;;;;5008652;28;20743;-71
2023/04/06 09:41:35;;;;;;;15.70;10.00;;;9.90;99.90;;;;;;5022431;28;20298;-72
2023/04/06 09:44:09;;;;;;;14.23;10.23;;;10.00;99.90;;;;;;5013680;28;20463;-72
2023/04/06 09:46:37;;;;;;;13.35;10.05;;;10.10;99.90;;;;;;5008694;28;20042;-71
2023/04/06 09:49:03;;;;;;;15.98;10.43;;;10.20;99.90;;;;;;5015775;28;20035;-72
2023/04/06 09:51:35;;;;;;;14.45;9.98;;;10.20;99.90;;;;;;5007724;28;20040;-72
2023/04/06 09:54:03;;;;;;;12.85;8.90;;;10.40;99.90;;;;;;5011599;28;20034;-72
2023/04/06 09:56:37;;;;;;;12.48;9.32;;;10.50;99.90;;;;;;5008985;28;20030;-72
2023/04/06 09:59:12;;;;;;;15.32;9.75;;;10.70;99.30;;;;;;5025235;28;20101;-72
2023/04/06 10:01:39;;;;;;;16.02;9.90;;;10.80;96.00;;;;;;5019347;28;21697;-71
2023/04/06 10:04:44;;;;;;;13.70;9.63;;;10.90;95.30;;;;;;5010845;28;20443;-71
2023/04/06 10:07:15;;;;;;;14.27;9.38;;;11.00;95.90;;;;;;5014719;28;20612;-72
2023/04/06 10:09:44;;;;;;;16.35;10.57;;;11.20;93.40;;;;;;5008696;28;20029;-72
2023/04/06 10:12:10;;;;;;;16.00;10.50;;;11.20;93.40;;;;;;5015362;28;20121;-72
2023/04/06 10:14:36;;;;;;;18.45;11.80;;;11.20;92.20;;;;;;5007687;28;20061;-72
2023/04/06 10:17:04;;;;;;;17.80;11.32;;;11.20;93.30;;;;;;5021657;28;20053;-72
2023/04/06 10:19:49;;;;;;;15.77;11.07;;;11.20;91.90;;;;;;5014868;28;20442;-72
2023/04/06 10:22:32;;;;;;;16.60;10.88;;;11.20;93.10;;;;;;5009654;28;20029;-72
2023/04/06 10:24:58;;;;;;;15.97;11.73;;;11.40;92.70;;;;;;5016166;28;20879;-72
2023/04/06 10:27:30;;;;;;;18.58;11.45;;;11.40;92.40;;;;;;5011311;28;20323;-72
2023/04/06 10:30:05;;;;;;;15.68;11.27;;;11.50;91.70;;;;;;5022140;28;20138;-72
2023/04/06 10:32:38;;;;;;;16.80;11.77;;;11.60;91.00;;;;;;5007523;28;20390;-72
2023/04/06 10:35:11;;;;;;;16.98;11.00;;;11.60;91.20;;;;;;5012221;28;20091;-71
2023/04/06 10:38:00;;;;;;;17.83;11.77;;;11.70;90.40;;;;;;5025378;28;20037;-71
2023/04/06 10:40:27;;;;;;;16.63;11.52;;;11.80;90.90;;;;;;5020684;28;20026;-71
2023/04/06 10:42:56;;;;;;;15.80;11.93;;;11.90;91.60;;;;;;5013102;28;20026;-72
2023/04/06 10:45:23;;;;;;;17.92;12.23;;;12.00;90.30;;;;;;5014287;28;20048;-71
2023/04/06 10:47:50;;;;;;;19.38;11.68;;;12.00;86.20;;;;;;5008931;28;20034;-71
2023/04/06 10:50:17;;;;;;;19.58;13.15;;;12.10;83.40;;;;;;5016394;28;20037;-75
2023/04/06 10:52:45;;;;;;;18.13;12.05;;;12.20;86.60;;;;;;5007119;28;20461;-75
2023/04/06 10:55:13;;;;;;;18.73;12.60;;;12.30;90.00;;;;;;5018372;28;20079;-75
2023/04/06 10:57:39;;;;;;;20.63;12.88;;;12.40;90.50;;;;;;5012372;28;20041;-75
2023/04/06 11:00:05;;;;;;;20.20;13.63;;;12.50;88.40;;;;;;5023435;28;20029;-75
2023/04/06 11:02:32;;;;;;;20.02;12.73;;;12.60;88.30;;;;;;5014646;28;20026;-75
2023/04/06 11:04:59;;;;;;;17.80;12.65;;;12.60;86.60;;;;;;5022261;28;20083;-75
2023/04/06 11:07:26;;;;;;;19.98;12.55;;;12.60;84.80;;;;;;5015551;28;20498;-75
2023/04/06 11:09:52;;;;;;;21.23;13.43;;;12.60;84.10;;;;;;5013039;28;20037;-75
2023/04/06 11:12:25;;;;;;;19.73;13.07;;;12.80;84.40;;;;;;5017393;28;20034;-75
2023/04/06 11:14:54;;;;;;;;;;;12.90;96.00;;;;;;5023584;28;20192;-75
2023/04/06 11:17:26;;;;;;;19.08;12.45;;;12.90;94.40;;;;;;5019481;28;19920;-75
2023/04/06 11:19:52;;;;;;;21.40;13.40;;;13.00;94.40;;;;;;5015653;28;20033;-75
2023/04/06 11:22:17;;;;;;;20.55;13.55;;;13.10;92.20;;;;;;5013485;28;20068;-75
2023/04/06 11:24:43;;;;;;;20.90;13.38;;;13.20;91.80;;;;;;5014321;28;20029;-76
2023/04/06 11:27:09;;;;;;;19.20;12.20;;;13.30;91.10;;;;;;5028842;28;20052;-75
2023/04/06 11:29:37;;;;;;;18.33;12.52;;;13.40;90.70;;;;;;5012249;28;20022;-76
2023/04/06 11:32:04;;;;;;;17.95;12.05;;;13.40;90.80;;;;;;5020209;28;20108;-76
2023/04/06 11:34:33;;;;;;;18.83;12.20;;;13.60;93.30;;;;;;5013548;28;20026;-75
2023/04/06 11:37:01;;;;;;;17.50;11.80;;;13.50;94.30;;;;;;5016410;28;20458;-75
2023/04/06 11:39:29;;;;;;;19.73;11.68;;;13.50;93.10;;;;;;5013654;28;20030;-74
2023/04/06 11:41:57;;;;;;;17.63;11.93;;;13.60;91.40;;;;;;5011973;28;20029;-74
2023/04/06 11:44:32;;;;;;;17.52;11.95;;;13.60;88.70;;;;;;5012702;28;20044;-74
2023/04/06 11:46:58;;;;;;;18.45;12.90;;;13.60;86.90;;;;;;5013004;28;20021;-75
2023/04/06 11:49:31;;;;;;;20.67;12.68;;;13.60;86.00;;;;;;5008393;28;20037;-75
2023/04/06 11:51:58;;;;;;;17.05;11.68;;;13.50;87.60;;;;;;5020429;28;20390;-74
2023/04/06 11:54:35;;;;;;;15.60;10.27;;;13.60;88.40;;;;;;5022644;28;20082;-75
2023/04/06 11:57:02;;;;;;;16.67;10.82;;;13.70;91.60;;;;;;5020825;28;20033;-75
2023/04/06 11:59:28;;;;;;;18.65;11.65;;;13.80;92.20;;;;;;5020024;28;20052;-76
2023/04/06 12:01:54;;;;;;;15.27;10.85;;;13.70;91.40;;;;;;5008263;28;20038;-75
2023/04/06 12:04:20;;;;;;;15.00;10.77;;;13.80;89.40;;;;;;5009745;28;20033;-74
2023/04/06 12:06:46;;;;;;;16.02;10.55;;;13.70;90.70;;;;;;5013043;28;20040;-71
2023/04/06 12:09:12;;;;;;;18.13;9.75;;;13.70;86.40;;;;;;5031338;28;20021;-71
2023/04/06 12:11:37;;;;;;;15.63;11.20;;;13.80;85.70;;;;;;5020637;28;20367;-71
2023/04/06 12:14:04;;;;;;;17.48;10.68;;;13.90;86.40;;;;;;5013045;28;20339;-71
2023/04/06 12:16:31;;;;;;;14.35;9.85;;;14.00;82.50;;;;;;5011679;28;20041;-71
2023/04/06 12:18:57;;;;;;;15.68;10.70;;;14.00;83.20;;;;;;5015839;28;20034;-71
2023/04/06 12:21:22;;;;;;;14.80;9.55;;;14.00;83.20;;;;;;5011683;28;20064;-72
2023/04/06 12:23:48;;;;;;;14.88;9.18;;;14.00;83.10;;;;;;5023439;28;20526;-72
2023/04/06 12:26:13;;;;;;;14.63;9.20;;;14.10;82.60;;;;;;5016557;28;20453;-71
2023/04/06 12:28:39;;;;;;;13.27;8.85;;;13.90;66.30;;;;;;5019933;28;20051;-72
2023/04/06 12:31:05;;;;;;;14.23;9.13;;;13.90;66.40;;;;;;5015746;28;20025;-72
2023/04/06 12:33:30;;;;;;;14.63;9.32;;;13.80;65.60;;;;;;4664326;28;9999710;-71
2023/04/06 12:35:56;;;;;;;14.57;9.95;;;13.90;64.60;;;;;;5009049;28;20041;-72
2023/04/06 12:38:22;;;;;;;13.00;9.32;;;13.90;66.20;;;;;;5008764;28;20061;-71
2023/04/06 12:40:47;;;;;;;15.00;8.85;;;13.90;65.10;;;;;;5012464;28;20029;-72
2023/04/06 12:43:13;;;;;;;12.55;8.52;;;;;;;;;;5026844;28;20080;-71
2023/04/06 12:45:40;;;;;;;13.85;8.35;;;14.20;63.00;;;;;;5012497;28;20033;-71
2023/04/06 12:48:06;;;;;;;16.52;8.63;;;14.20;64.40;;;;;;5008463;28;20069;-72
2023/04/06 12:50:32;;;;;;;16.83;9.73;;;14.20;63.60;;;;;;5013832;28;20447;-72
2023/04/06 12:52:57;;;;;;;11.60;8.20;;;14.20;62.50;;;;;;5010767;28;20105;-72
2023/04/06 12:55:23;;;;;;;13.55;9.10;;;14.20;66.80;;;;;;5017399;28;20037;-71
2023/04/06 12:57:49;;;;;;;15.00;8.77;;;14.30;66.20;;;;;;5005260;28;20201;-72
2023/04/06 13:00:15;;;;;;;15.27;8.93;;;14.40;64.80;;;;;;5008785;28;20043;-72
2023/04/06 13:02:46;;;;;;;14.05;9.52;;;14.50;63.30;;;;;;5013385;28;20034;-72
2023/04/06 13:05:12;;;;;;;14.65;9.98;;;14.60;64.80;;;;;;5015132;28;20048;-72
2023/04/06 13:07:38;;;;;;;14.68;9.48;;;14.80;65.60;;;;;;5008428;28;20022;-71
2023/04/06 13:10:04;;;;;;;14.95;8.80;;;14.70;65.40;;;;;;5011604;28;20034;-71